Portada
METAR-TAF:

METAR-TAF

Aeroports :

Port Vila, Éfaté, Vanuatu

latitud: 17-42S, longitud: 168-18E, altitud: 20 m

Observació

L'informe es va fer fa 20 minuts, a les 07:00 UTC
Vent 10 kt del Est/Sud-Est
Temperatura 23°C
Humitat 83%
Pressió 1016 hPa
Visibilitat 10 km o més
Cel ennuvolat a una alçada de 2000 ft
Cel cobert a una alçada de 11000 ft

METAR: NVVV 190700Z 12010KT 9999 BKN020 OVC110 23/20 Q1016

Hora: 18:20 (07:20 UTC)

Pronòstic

L'informe es va fer fa 2 hores i 50 minuts, a les 04:30 UTC
Pronòstic vàlid del 19 a les 06 UTC al 20 a les 06 UTC
Vent 12 kt del Sud-Est
Visibilitat: 9000 m
Cel ennuvolat a una alçada de 2000 ft
Cel cobert a una alçada de 4000 ft
Escasses núvols a una alçada de 1000 ft
Cel ennuvolat a una alçada de 1800 ft
Cel cobert a una alçada de 3800 ft
xàfecs de pluja

TAF: NVVV 190430Z 1906/2006 13012KT 9999 BKN020 OVC040 INTER 1906/1912 9000 -SHRA FEW010 BKN018 OVC038

Observacions i pronòstics meteorològics de més de 4000 aeroports (METAR i TAF).

Les estacions disponibles són els punts grocs i vermells al mapa.

Posi el ratolí al punt desitjat per veure el nom de l'estació.

Feu clic per veure les observacions i els pronòstics meteorològics.

Per canviar el mapa: feu clic els botons verds amb una creu de color negre per apropar; al botó verd amb un guió per allunyar la imatge; o en les fletxes verdes per a mapes adjacents.


METAR-TAF: